AUA2800 LSZA-LFMN
Flight info
| Callsign | AUA2800 |
|---|---|
| Flight time | N/A |
| Altitude | 29000 |
| Route | VOG DCT ENOBA Z185 ASBOP/N0382F190 Z185 BORDI |
| Aircraft | A321/M-SDE3FGHIRWY/LB1 |
Departure
| Time | 2026-04-15 21:27 |
|---|---|
| Airport | Lugano Airport (LSZA) |
Arrival
| Time | N/A |
|---|---|
| Airport | Nice-Côte d'Azur Airport (LFMN) |
| Time | Latitude | Longitude | Altitude | Speed | Heading |
|---|---|---|---|---|---|
| 2026-04-15 21:16 | 46.00257 | 8.90769 | 903 ft | 0 kts | 199° |
| 2026-04-15 21:21 | 46.00253 | 8.90767 | 903 ft | 2 kts | 198° |
| 2026-04-15 21:22 | 46.00225 | 8.90781 | 903 ft | 7 kts | 159° |
| 2026-04-15 21:22 | 46.00230 | 8.90844 | 903 ft | 10 kts | 40° |
| 2026-04-15 21:22 | 46.00318 | 8.90894 | 903 ft | 16 kts | 19° |
| 2026-04-15 21:22 | 46.00431 | 8.90949 | 905 ft | 17 kts | 21° |
| 2026-04-15 21:23 | 46.00456 | 8.91059 | 906 ft | 10 kts | 61° |
| 2026-04-15 21:23 | 46.00518 | 8.91105 | 909 ft | 12 kts | 17° |
| 2026-04-15 21:23 | 46.00630 | 8.91159 | 904 ft | 23 kts | 19° |
| 2026-04-15 21:23 | 46.00798 | 8.91240 | 901 ft | 27 kts | 17° |
| 2026-04-15 21:24 | 46.00983 | 8.91322 | 901 ft | 28 kts | 11° |
| 2026-04-15 21:24 | 46.01037 | 8.91364 | 902 ft | 4 kts | 165° |
| 2026-04-15 21:24 | 46.01034 | 8.91362 | 902 ft | 0 kts | 194° |
| 2026-04-15 21:26 | 46.01023 | 8.91357 | 902 ft | 10 kts | 198° |
| 2026-04-15 21:27 | 46.00685 | 8.91183 | 902 ft | 98 kts | 198° |
| 2026-04-15 21:27 | 45.99787 | 8.90753 | 925 ft | 170 kts | 198° |
| 2026-04-15 21:27 | 45.98620 | 8.90174 | 1708 ft | 183 kts | 200° |
| 2026-04-15 21:27 | 45.97380 | 8.89524 | 2617 ft | 190 kts | 200° |
| 2026-04-15 21:28 | 45.96151 | 8.88842 | 3489 ft | 181 kts | 202° |
| 2026-04-15 21:28 | 45.95001 | 8.88046 | 3835 ft | 198 kts | 208° |
| 2026-04-15 21:28 | 45.93668 | 8.87080 | 4143 ft | 221 kts | 203° |
| 2026-04-15 21:28 | 45.92147 | 8.86246 | 4452 ft | 245 kts | 195° |
| 2026-04-15 21:29 | 45.90406 | 8.85648 | 4942 ft | 265 kts | 193° |
| 2026-04-15 21:29 | 45.88566 | 8.85105 | 5674 ft | 271 kts | 192° |
| 2026-04-15 21:29 | 45.86731 | 8.84476 | 6451 ft | 275 kts | 198° |
| 2026-04-15 21:29 | 45.84896 | 8.83600 | 7191 ft | 279 kts | 199° |
| 2026-04-15 21:30 | 45.83034 | 8.82683 | 8012 ft | 281 kts | 199° |
| 2026-04-15 21:30 | 45.81174 | 8.81749 | 8751 ft | 285 kts | 199° |
| 2026-04-15 21:30 | 45.79297 | 8.80799 | 9520 ft | 288 kts | 199° |
| 2026-04-15 21:30 | 45.77373 | 8.79822 | 10263 ft | 292 kts | 199° |